createdAt,value
2023-10-27T00:01:26.170Z,5.00
2023-10-27T00:03:48.117Z,3.55
2023-10-27T00:06:10.062Z,4.90
2023-10-27T00:08:31.960Z,3.40
2023-10-27T00:10:54.570Z,4.28
2023-10-27T00:13:16.551Z,5.45
2023-10-27T00:15:38.450Z,5.93
2023-10-27T00:18:01.141Z,3.93
2023-10-27T00:20:23.195Z,8.13
2023-10-27T00:22:45.076Z,5.63
2023-10-27T00:25:07.616Z,5.63
2023-10-27T00:27:29.529Z,6.72
2023-10-27T00:29:51.388Z,5.65
2023-10-27T00:32:13.347Z,4.32
2023-10-27T00:34:35.284Z,6.07
2023-10-27T00:36:57.285Z,7.20
2023-10-27T00:39:19.215Z,5.13
2023-10-27T00:41:41.083Z,7.60
2023-10-27T00:44:02.996Z,5.47
2023-10-27T00:46:24.918Z,5.15
2023-10-27T00:48:46.914Z,3.17
2023-10-27T00:51:10.985Z,4.85
2023-10-27T00:53:33.545Z,5.55
2023-10-27T00:55:56.296Z,8.25
2023-10-27T00:58:18.387Z,10.07
2023-10-27T01:00:40.605Z,6.30
2023-10-27T01:03:02.532Z,6.82
2023-10-27T01:05:24.836Z,6.32
2023-10-27T01:07:46.921Z,4.25
2023-10-27T01:10:09.362Z,8.98
2023-10-27T01:12:32.722Z,4.82
2023-10-27T01:14:54.777Z,6.68
2023-10-27T01:17:16.829Z,5.68
2023-10-27T01:19:38.953Z,7.47
2023-10-27T01:22:00.867Z,6.97
2023-10-27T01:24:23.634Z,7.40
2023-10-27T01:26:45.960Z,5.13
2023-10-27T01:29:07.901Z,6.30
2023-10-27T01:31:29.852Z,7.70
2023-10-27T01:33:51.858Z,7.80
2023-10-27T01:36:13.763Z,5.50
2023-10-27T01:38:35.655Z,5.20
2023-10-27T01:40:57.534Z,7.28
2023-10-27T01:43:19.490Z,6.70
2023-10-27T01:45:41.408Z,4.40
2023-10-27T01:48:03.457Z,8.18
2023-10-27T01:50:25.431Z,9.95
2023-10-27T01:52:47.517Z,7.53
2023-10-27T01:55:10.229Z,6.47
2023-10-27T01:57:32.160Z,6.72
2023-10-27T01:59:54.136Z,8.90
2023-10-27T02:02:16.946Z,5.53
2023-10-27T02:04:38.955Z,8.75
2023-10-27T02:07:00.902Z,8.00
2023-10-27T02:09:22.879Z,6.68
2023-10-27T02:11:44.753Z,9.07
2023-10-27T02:14:06.642Z,7.38
2023-10-27T02:16:28.505Z,9.27
2023-10-27T02:18:50.464Z,8.05
2023-10-27T02:21:12.347Z,6.90
2023-10-27T02:23:34.665Z,7.90
2023-10-27T02:25:56.544Z,8.13
2023-10-27T02:28:18.492Z,10.77
2023-10-27T02:30:40.489Z,8.63
2023-10-27T02:33:02.390Z,5.88
2023-10-27T02:35:26.558Z,14.45
2023-10-27T02:37:48.575Z,8.57
2023-10-27T02:40:11.041Z,7.72
2023-10-27T02:42:33.129Z,8.90
2023-10-27T02:44:55.078Z,8.98
2023-10-27T02:47:17.186Z,8.82
2023-10-27T02:49:39.721Z,10.93
2023-10-27T02:52:01.637Z,10.00
2023-10-27T02:54:23.554Z,8.88
2023-10-27T02:56:45.389Z,8.75
2023-10-27T02:59:07.333Z,7.45
2023-10-27T03:01:29.267Z,8.23
2023-10-27T03:03:51.186Z,6.10
2023-10-27T03:06:13.652Z,8.95
2023-10-27T03:08:36.228Z,6.73
2023-10-27T03:10:58.123Z,8.82
2023-10-27T03:13:21.275Z,7.27
2023-10-27T03:15:43.233Z,7.30
2023-10-27T03:18:05.197Z,7.97
2023-10-27T03:20:27.109Z,7.95
2023-10-27T03:22:48.990Z,5.35
2023-10-27T03:25:10.895Z,6.88
2023-10-27T03:27:33.445Z,6.78
2023-10-27T03:29:55.296Z,5.03
2023-10-27T03:32:17.394Z,4.20
2023-10-27T03:34:39.347Z,7.68
2023-10-27T03:37:01.295Z,6.30
2023-10-27T03:39:23.195Z,5.50
2023-10-27T03:41:47.458Z,6.00
2023-10-27T03:44:10.453Z,5.63
2023-10-27T03:46:35.156Z,9.10
2023-10-27T03:48:57.217Z,6.55
2023-10-27T03:51:19.190Z,4.78
2023-10-27T03:53:41.100Z,6.35
2023-10-27T03:56:03.145Z,3.90
2023-10-27T03:58:33.101Z,6.00
2023-10-27T04:01:07.063Z,5.15
2023-10-27T04:03:29.324Z,3.55
2023-10-27T04:05:51.294Z,3.42
2023-10-27T04:08:13.290Z,3.03
2023-10-27T04:10:40.512Z,4.82
2023-10-27T04:13:06.165Z,4.33
2023-10-27T04:15:31.190Z,3.97
2023-10-27T04:17:53.133Z,4.33
2023-10-27T04:20:17.464Z,5.05
2023-10-27T04:22:39.370Z,3.40
2023-10-27T04:25:01.333Z,3.55
2023-10-27T04:27:23.273Z,2.50
2023-10-27T04:29:45.529Z,3.85
2023-10-27T04:32:07.737Z,3.13
2023-10-27T04:34:29.683Z,3.05
2023-10-27T04:36:51.666Z,3.85
2023-10-27T04:39:13.571Z,3.90
2023-10-27T04:41:35.438Z,3.20
2023-10-27T04:43:57.969Z,3.38
2023-10-27T04:46:19.973Z,3.17
2023-10-27T04:48:41.849Z,2.72
2023-10-27T04:51:04.990Z,4.30
2023-10-27T04:53:26.937Z,2.30
2023-10-27T04:55:48.885Z,2.83
2023-10-27T04:58:11.020Z,3.10
2023-10-27T05:00:32.925Z,1.70
2023-10-27T05:02:54.907Z,3.60
2023-10-27T05:05:17.362Z,4.60
2023-10-27T05:07:39.320Z,2.17
2023-10-27T05:10:01.242Z,2.47
2023-10-27T05:12:24.224Z,2.13
2023-10-27T05:14:46.135Z,2.25
2023-10-27T05:17:08.034Z,2.30
2023-10-27T05:19:29.915Z,2.58
2023-10-27T05:21:51.798Z,3.30
2023-10-27T05:24:13.714Z,1.92
2023-10-27T05:26:35.591Z,3.22
2023-10-27T05:29:00.245Z,2.28
2023-10-27T05:31:22.672Z,1.90
2023-10-27T05:33:44.718Z,3.40
2023-10-27T05:36:06.816Z,2.08
2023-10-27T05:38:28.702Z,2.40
2023-10-27T05:40:50.548Z,2.50
2023-10-27T05:43:14.122Z,3.45
2023-10-27T05:45:36.042Z,2.03
2023-10-27T05:47:58.018Z,4.10
2023-10-27T05:50:20.035Z,2.40
2023-10-27T05:52:41.979Z,3.20
2023-10-27T05:55:05.525Z,3.50
2023-10-27T05:57:27.881Z,2.35
2023-10-27T05:59:49.913Z,1.92
2023-10-27T06:02:15.829Z,3.23
2023-10-27T06:04:39.576Z,2.38
2023-10-27T06:07:01.552Z,1.83
2023-10-27T06:09:23.520Z,2.60
2023-10-27T06:11:45.490Z,2.10
2023-10-27T06:14:07.446Z,1.98
2023-10-27T06:16:29.476Z,2.05
2023-10-27T06:18:55.352Z,2.10
2023-10-27T06:21:17.329Z,2.30
2023-10-27T06:23:39.265Z,1.90
2023-10-27T06:26:01.482Z,1.90
2023-10-27T06:28:23.418Z,3.40
2023-10-27T06:30:45.383Z,2.17
2023-10-27T06:33:08.148Z,2.30
2023-10-27T06:35:30.426Z,2.00
2023-10-27T06:37:52.346Z,2.07
2023-10-27T06:40:14.341Z,1.80
2023-10-27T06:42:36.322Z,1.80
2023-10-27T06:44:58.218Z,2.13
2023-10-27T06:47:22.566Z,2.10
2023-10-27T06:49:46.239Z,2.15
2023-10-27T06:52:08.287Z,2.20
2023-10-27T06:54:30.248Z,1.70
2023-10-27T06:56:52.271Z,1.60
2023-10-27T06:59:14.126Z,2.30
2023-10-27T07:01:35.999Z,1.50
2023-10-27T07:03:58.140Z,1.20
2023-10-27T07:06:20.210Z,1.60
2023-10-27T07:08:47.104Z,1.50
2023-10-27T07:11:09.032Z,1.30
2023-10-27T07:13:31.752Z,1.30
2023-10-27T07:15:54.200Z,1.40
2023-10-27T07:18:16.077Z,3.70
2023-10-27T07:20:41.129Z,0.90
2023-10-27T07:23:04.700Z,2.00
2023-10-27T07:25:26.628Z,0.90
2023-10-27T07:27:49.404Z,0.80
2023-10-27T07:30:12.126Z,0.85
2023-10-27T07:32:34.010Z,1.00
2023-10-27T07:34:56.533Z,1.30
2023-10-27T07:37:20.993Z,1.00
2023-10-27T07:39:42.990Z,0.90
2023-10-27T07:42:05.782Z,0.90
2023-10-27T07:44:27.701Z,0.90
2023-10-27T07:46:49.637Z,0.77
2023-10-27T07:49:11.776Z,0.68
2023-10-27T07:51:34.204Z,0.60
2023-10-27T07:53:56.133Z,0.60
2023-10-27T07:56:19.181Z,0.60
2023-10-27T07:58:41.120Z,1.20
2023-10-27T08:01:06.865Z,0.50
2023-10-27T08:03:29.947Z,0.57
2023-10-27T08:05:52.453Z,0.50
2023-10-27T08:08:14.294Z,0.60
2023-10-27T08:10:39.538Z,0.52
2023-10-27T08:13:01.406Z,0.50
2023-10-27T08:15:24.436Z,0.50
2023-10-27T08:17:46.432Z,0.60
2023-10-27T08:20:08.742Z,0.50
2023-10-27T08:22:31.736Z,0.50
2023-10-27T08:24:54.157Z,0.50
2023-10-27T08:27:16.021Z,0.98
2023-10-27T08:29:37.934Z,1.10
2023-10-27T08:31:59.833Z,0.50
2023-10-27T08:34:23.022Z,0.60
2023-10-27T08:36:46.632Z,0.60
2023-10-27T08:39:09.084Z,0.50
2023-10-27T08:41:31.160Z,0.60
2023-10-27T08:43:57.072Z,0.53
2023-10-27T08:46:20.958Z,0.60
2023-10-27T08:48:43.695Z,0.50
2023-10-27T08:51:10.527Z,0.60
2023-10-27T08:53:32.937Z,1.00
2023-10-27T08:55:55.967Z,0.70
2023-10-27T08:58:17.840Z,0.90
2023-10-27T09:00:40.137Z,0.60
2023-10-27T09:03:17.703Z,0.57
2023-10-27T09:05:39.593Z,1.70
2023-10-27T09:08:01.602Z,0.60
2023-10-27T09:10:24.303Z,1.40
2023-10-27T09:12:48.825Z,0.50
2023-10-27T09:15:14.137Z,0.60
2023-10-27T09:17:58.518Z,0.60
2023-10-27T09:20:24.789Z,1.00
2023-10-27T09:23:13.816Z,1.20
2023-10-27T09:25:36.424Z,0.63
2023-10-27T09:28:00.026Z,0.80
2023-10-27T09:30:41.280Z,1.52
2023-10-27T09:33:27.556Z,0.80
2023-10-27T09:35:52.515Z,0.60
2023-10-27T09:38:15.390Z,0.70
2023-10-27T09:40:41.371Z,0.70
2023-10-27T09:43:03.717Z,0.90
2023-10-27T09:45:29.319Z,1.00
2023-10-27T09:47:57.078Z,0.80
2023-10-27T09:50:25.577Z,1.20
2023-10-27T09:52:50.059Z,0.80
2023-10-27T09:55:16.461Z,0.60
2023-10-27T09:57:39.414Z,0.80
2023-10-27T10:00:08.474Z,0.83
2023-10-27T10:02:31.628Z,1.00
2023-10-27T10:04:53.736Z,1.52
2023-10-27T10:07:33.077Z,0.70
2023-10-27T10:09:55.469Z,1.80
2023-10-27T10:12:17.355Z,0.95
2023-10-27T10:14:41.754Z,1.10
2023-10-27T10:17:07.841Z,1.20
2023-10-27T10:19:52.368Z,1.00
2023-10-27T10:22:39.166Z,1.67
2023-10-27T10:25:19.104Z,0.98
2023-10-27T10:28:10.131Z,1.27
2023-10-27T10:30:32.385Z,1.00
2023-10-27T10:33:18.295Z,1.30
2023-10-27T10:35:40.329Z,1.20
2023-10-27T10:38:25.020Z,1.50
2023-10-27T10:40:55.548Z,1.63
2023-10-27T10:43:26.230Z,1.08
2023-10-27T10:45:57.683Z,1.10
2023-10-27T10:48:20.665Z,2.80
2023-10-27T10:50:43.651Z,2.15
2023-10-27T10:53:13.735Z,1.30
2023-10-27T10:55:35.646Z,1.40
2023-10-27T10:57:57.619Z,1.90
2023-10-27T11:00:19.896Z,2.05
2023-10-27T11:02:42.280Z,2.50
2023-10-27T11:05:27.014Z,1.00
2023-10-27T11:07:49.949Z,1.10
2023-10-27T11:10:22.343Z,1.20
2023-10-27T11:12:44.635Z,2.05
2023-10-27T11:15:07.062Z,1.60
2023-10-27T11:17:50.545Z,1.10
2023-10-27T11:20:12.560Z,1.60
2023-10-27T11:22:34.543Z,1.20
2023-10-27T11:24:56.510Z,2.50
2023-10-27T11:27:26.491Z,1.77
2023-10-27T11:30:04.849Z,3.85
2023-10-27T11:32:26.879Z,2.70
2023-10-27T11:34:57.217Z,1.73
2023-10-27T11:37:19.328Z,1.30
2023-10-27T11:39:41.290Z,1.77
2023-10-27T11:42:04.464Z,1.55
2023-10-27T11:44:30.581Z,1.70
2023-10-27T11:46:56.077Z,1.80
2023-10-27T11:49:18.725Z,1.33
2023-10-27T11:51:46.773Z,2.67
2023-10-27T11:54:08.667Z,1.70
2023-10-27T11:56:30.575Z,2.15
2023-10-27T11:58:52.467Z,1.00
2023-10-27T12:01:14.387Z,1.42
2023-10-27T12:03:36.494Z,1.10
2023-10-27T12:05:58.454Z,2.40
2023-10-27T12:08:21.826Z,2.05
2023-10-27T12:10:44.378Z,0.90
2023-10-27T12:13:08.004Z,1.00
2023-10-27T12:15:30.442Z,1.00
2023-10-27T12:17:52.367Z,1.42
2023-10-27T12:20:14.328Z,2.10
2023-10-27T12:22:36.213Z,1.33
2023-10-27T12:24:58.182Z,1.60
2023-10-27T12:27:21.161Z,1.10
2023-10-27T12:29:44.171Z,1.10
2023-10-27T12:32:06.407Z,1.10
2023-10-27T12:34:28.558Z,1.20
2023-10-27T12:36:50.460Z,1.02
2023-10-27T12:39:15.363Z,1.25
2023-10-27T12:41:37.920Z,1.00
2023-10-27T12:44:00.012Z,1.50
2023-10-27T12:46:24.027Z,1.80
2023-10-27T12:48:48.317Z,0.88
2023-10-27T12:51:10.370Z,1.10
2023-10-27T12:53:32.365Z,0.63
2023-10-27T12:55:55.864Z,0.70
2023-10-27T12:58:17.925Z,1.00
2023-10-27T13:00:40.447Z,0.60
2023-10-27T13:03:02.934Z,0.90
2023-10-27T13:05:25.122Z,0.73
2023-10-27T13:07:47.194Z,0.70
2023-10-27T13:10:10.088Z,0.70
2023-10-27T13:12:32.836Z,0.80
2023-10-27T13:14:55.944Z,1.10
2023-10-27T13:17:17.880Z,1.83
2023-10-27T13:19:39.824Z,1.80
2023-10-27T13:22:02.601Z,0.90
2023-10-27T13:24:24.517Z,0.80
2023-10-27T13:26:47.011Z,1.08
2023-10-27T13:29:09.166Z,1.40
2023-10-27T13:31:31.300Z,0.80
2023-10-27T13:33:55.085Z,0.80
2023-10-27T13:36:18.197Z,1.27
2023-10-27T13:38:41.419Z,0.90
2023-10-27T13:41:03.454Z,0.83
2023-10-27T13:43:25.400Z,1.00
2023-10-27T13:45:47.800Z,1.40
2023-10-27T13:48:10.340Z,2.10
2023-10-27T13:50:33.205Z,0.70
2023-10-27T13:52:57.154Z,1.50
2023-10-27T13:55:19.174Z,0.95
2023-10-27T13:57:41.072Z,1.23
2023-10-27T14:00:04.187Z,1.00
2023-10-27T14:02:26.208Z,1.00
2023-10-27T14:04:48.735Z,0.90
2023-10-27T14:07:11.114Z,1.93
2023-10-27T14:09:33.309Z,1.00
2023-10-27T14:11:55.234Z,0.80
2023-10-27T14:14:17.193Z,1.77
2023-10-27T14:16:40.628Z,1.10
2023-10-27T14:19:03.072Z,1.10
2023-10-27T14:21:24.962Z,0.80
2023-10-27T14:23:48.042Z,1.50
2023-10-27T14:26:13.238Z,1.60
2023-10-27T14:28:35.261Z,1.00
2023-10-27T14:30:57.553Z,1.10
2023-10-27T14:33:19.576Z,1.80
2023-10-27T14:35:41.456Z,0.90
2023-10-27T14:38:03.375Z,1.40
2023-10-27T14:40:25.431Z,1.40
2023-10-27T14:42:48.482Z,0.80
2023-10-27T14:45:12.762Z,0.70
2023-10-27T14:47:43.725Z,1.50
2023-10-27T14:50:06.801Z,0.90
2023-10-27T14:52:28.765Z,0.80
2023-10-27T14:54:50.701Z,1.00
2023-10-27T14:57:12.631Z,1.20
2023-10-27T14:59:34.551Z,0.80
2023-10-27T15:01:56.438Z,1.88
2023-10-27T15:04:18.512Z,0.80
2023-10-27T15:06:40.624Z,0.90
2023-10-27T15:09:02.505Z,1.25
2023-10-27T15:11:24.568Z,1.40
2023-10-27T15:13:46.531Z,0.90
2023-10-27T15:16:14.364Z,1.20
2023-10-27T15:18:36.756Z,1.00
2023-10-27T15:21:04.268Z,0.80
2023-10-27T15:23:27.003Z,1.10
2023-10-27T15:25:48.925Z,1.10
2023-10-27T15:28:11.245Z,1.20
2023-10-27T15:30:33.273Z,0.80
2023-10-27T15:32:55.216Z,0.80
2023-10-27T15:35:17.210Z,1.00
2023-10-27T15:37:39.120Z,1.10
2023-10-27T15:40:11.029Z,0.80
2023-10-27T15:42:32.930Z,1.15
2023-10-27T15:45:00.896Z,1.10
2023-10-27T15:47:23.102Z,1.00
2023-10-27T15:49:47.948Z,0.90
2023-10-27T15:52:09.974Z,1.10
2023-10-27T15:54:32.691Z,0.88
2023-10-27T15:56:54.575Z,1.00
2023-10-27T15:59:16.546Z,0.98
2023-10-27T16:01:38.466Z,0.90
2023-10-27T16:04:00.821Z,1.30
2023-10-27T16:06:23.655Z,0.85
2023-10-27T16:08:47.273Z,0.85
2023-10-27T16:11:13.699Z,1.10
2023-10-27T16:13:35.663Z,1.13
2023-10-27T16:15:57.874Z,1.95
2023-10-27T16:18:22.827Z,1.10
2023-10-27T16:20:44.959Z,1.17
2023-10-27T16:23:07.906Z,1.70
2023-10-27T16:25:30.802Z,1.00
2023-10-27T16:27:52.777Z,1.10
2023-10-27T16:30:14.679Z,1.70
2023-10-27T16:32:36.649Z,2.90
2023-10-27T16:34:58.789Z,1.33
2023-10-27T16:37:20.774Z,1.40
2023-10-27T16:39:45.984Z,1.67
2023-10-27T16:42:08.333Z,1.70
2023-10-27T16:44:30.215Z,1.55
2023-10-27T16:46:54.848Z,1.70
2023-10-27T16:49:16.840Z,1.60
2023-10-27T16:51:38.736Z,1.48
2023-10-27T16:54:00.763Z,1.45
2023-10-27T16:56:22.866Z,1.50
2023-10-27T16:58:45.399Z,1.90
2023-10-27T17:01:10.291Z,2.50
2023-10-27T17:03:34.792Z,3.77
2023-10-27T17:05:58.986Z,3.10
2023-10-27T17:08:20.826Z,2.83
2023-10-27T17:10:42.781Z,2.90
2023-10-27T17:13:05.769Z,2.20
2023-10-27T17:15:27.644Z,2.00
2023-10-27T17:17:49.525Z,1.70
2023-10-27T17:20:16.730Z,1.90
2023-10-27T17:22:39.684Z,1.70
2023-10-27T17:25:01.627Z,2.60
2023-10-27T17:27:23.606Z,1.80
2023-10-27T17:29:46.946Z,1.60
2023-10-27T17:32:11.664Z,1.60
2023-10-27T17:34:34.100Z,2.00
2023-10-27T17:36:56.005Z,1.70
2023-10-27T17:39:18.434Z,2.85
2023-10-27T17:41:41.512Z,1.65
2023-10-27T17:44:08.568Z,1.40
2023-10-27T17:46:30.443Z,1.50
2023-10-27T17:48:53.348Z,1.50
2023-10-27T17:51:17.243Z,1.92
2023-10-27T17:53:39.823Z,2.50
2023-10-27T17:56:02.039Z,2.65
2023-10-27T17:58:24.411Z,3.30
2023-10-27T18:00:48.713Z,2.90
2023-10-27T18:03:13.171Z,2.70
2023-10-27T18:05:35.131Z,2.60
2023-10-27T18:07:57.004Z,2.58
2023-10-27T18:10:18.974Z,1.90
2023-10-27T18:12:41.427Z,2.50
2023-10-27T18:15:06.652Z,1.83
2023-10-27T18:17:28.610Z,1.70
2023-10-27T18:19:50.610Z,1.98
2023-10-27T18:22:13.070Z,1.70
2023-10-27T18:24:36.170Z,1.90
2023-10-27T18:26:59.266Z,2.57
2023-10-27T18:29:21.193Z,1.70
2023-10-27T18:31:43.957Z,2.30
2023-10-27T18:34:06.718Z,2.60
2023-10-27T18:36:29.361Z,3.00
2023-10-27T18:38:51.314Z,3.10
2023-10-27T18:41:13.604Z,2.97
2023-10-27T18:43:40.577Z,3.30
2023-10-27T18:46:03.527Z,3.50
2023-10-27T18:48:25.676Z,2.78
2023-10-27T18:50:55.412Z,4.03
2023-10-27T18:53:17.285Z,2.60
2023-10-27T18:55:39.378Z,2.45
2023-10-27T18:58:01.305Z,2.50
2023-10-27T19:00:23.998Z,1.80
2023-10-27T19:02:46.361Z,2.70
2023-10-27T19:05:10.835Z,2.10
2023-10-27T19:07:33.026Z,2.45
2023-10-27T19:09:55.008Z,2.20
2023-10-27T19:12:16.914Z,2.78
2023-10-27T19:14:39.206Z,2.30
2023-10-27T19:17:01.113Z,2.30
2023-10-27T19:19:23.267Z,2.80
2023-10-27T19:21:46.025Z,2.70
2023-10-27T19:24:09.026Z,2.70
2023-10-27T19:26:30.960Z,2.60
2023-10-27T19:28:55.455Z,2.70
2023-10-27T19:31:20.473Z,2.78
2023-10-27T19:33:44.123Z,2.60
2023-10-27T19:36:10.871Z,2.90
2023-10-27T19:38:32.893Z,2.90
2023-10-27T19:40:55.751Z,2.60
2023-10-27T19:43:17.755Z,2.90
2023-10-27T19:45:40.481Z,2.53
2023-10-27T19:48:03.907Z,2.58
2023-10-27T19:50:25.837Z,2.80
2023-10-27T19:52:48.609Z,2.70
2023-10-27T19:55:16.015Z,3.28
2023-10-27T19:57:38.333Z,3.08
2023-10-27T20:00:01.145Z,2.60
2023-10-27T20:02:23.115Z,2.63
2023-10-27T20:04:45.162Z,2.33
2023-10-27T20:07:07.112Z,2.40
2023-10-27T20:09:29.513Z,2.20
2023-10-27T20:11:53.491Z,2.17
2023-10-27T20:14:16.791Z,2.97
2023-10-27T20:16:39.392Z,2.30
2023-10-27T20:19:02.043Z,2.80
2023-10-27T20:21:24.727Z,1.90
2023-10-27T20:23:47.331Z,2.10
2023-10-27T20:26:10.005Z,2.65
2023-10-27T20:28:34.407Z,2.40
2023-10-27T20:30:59.500Z,1.80
2023-10-27T20:33:22.753Z,2.03
2023-10-27T20:35:45.110Z,1.90
2023-10-27T20:38:07.095Z,1.98
2023-10-27T20:40:30.330Z,2.30
2023-10-27T20:42:53.274Z,1.60
2023-10-27T20:45:16.782Z,1.70
2023-10-27T20:47:43.659Z,1.80
2023-10-27T20:50:06.107Z,2.10
2023-10-27T20:52:28.080Z,1.80
2023-10-27T20:54:50.060Z,1.50
2023-10-27T20:57:12.246Z,1.60
2023-10-27T20:59:34.528Z,2.10
2023-10-27T21:01:57.036Z,1.88
2023-10-27T21:04:19.129Z,2.00
2023-10-27T21:06:42.408Z,2.13
2023-10-27T21:09:07.644Z,2.23
2023-10-27T21:11:29.553Z,2.10
2023-10-27T21:13:51.496Z,2.55
2023-10-27T21:16:14.010Z,1.95
2023-10-27T21:18:35.926Z,2.60
2023-10-27T21:20:57.836Z,1.90
2023-10-27T21:23:21.324Z,3.42
2023-10-27T21:25:43.259Z,1.50
2023-10-27T21:28:06.570Z,3.30
2023-10-27T21:30:28.528Z,2.10
2023-10-27T21:32:50.470Z,2.00
2023-10-27T21:35:13.081Z,3.38
2023-10-27T21:37:35.358Z,1.90
2023-10-27T21:39:57.320Z,2.30
2023-10-27T21:42:22.518Z,1.88
2023-10-27T21:44:48.314Z,1.90
2023-10-27T21:47:10.322Z,3.10
2023-10-27T21:49:33.153Z,2.15
2023-10-27T21:51:55.054Z,2.42
2023-10-27T21:54:17.348Z,2.72
2023-10-27T21:56:39.210Z,2.30
2023-10-27T21:59:01.188Z,2.00
2023-10-27T22:01:24.025Z,3.60
2023-10-27T22:03:46.055Z,2.50
2023-10-27T22:06:08.088Z,2.15
2023-10-27T22:08:29.993Z,1.42
2023-10-27T22:10:52.064Z,2.83
2023-10-27T22:13:15.520Z,1.50
2023-10-27T22:15:38.296Z,2.15
2023-10-27T22:18:00.769Z,3.10
2023-10-27T22:20:22.822Z,1.60
2023-10-27T22:22:44.811Z,1.73
2023-10-27T22:25:09.325Z,1.50
2023-10-27T22:27:32.046Z,2.42
2023-10-27T22:29:54.038Z,2.47
2023-10-27T22:32:17.133Z,1.42
2023-10-27T22:34:40.989Z,3.58
2023-10-27T22:37:03.085Z,1.60
2023-10-27T22:39:24.986Z,1.40
2023-10-27T22:41:47.430Z,2.00
2023-10-27T22:44:09.488Z,1.60
2023-10-27T22:46:31.405Z,1.85
2023-10-27T22:48:53.417Z,1.40
2023-10-27T22:51:15.401Z,2.10
2023-10-27T22:53:37.981Z,1.70
2023-10-27T22:56:00.447Z,1.60
2023-10-27T22:58:22.452Z,1.67
2023-10-27T23:00:45.189Z,2.10
2023-10-27T23:03:08.032Z,1.40
2023-10-27T23:05:33.384Z,2.20
2023-10-27T23:07:56.661Z,2.08
2023-10-27T23:10:18.581Z,2.90
2023-10-27T23:12:40.822Z,1.50
2023-10-27T23:15:02.763Z,1.35
2023-10-27T23:17:25.931Z,1.80
2023-10-27T23:19:51.837Z,1.50
2023-10-27T23:22:13.823Z,1.90
2023-10-27T23:24:37.043Z,2.45
2023-10-27T23:26:58.913Z,1.60
2023-10-27T23:29:20.780Z,1.60
2023-10-27T23:31:42.809Z,1.60
2023-10-27T23:34:06.017Z,1.70
2023-10-27T23:36:32.581Z,2.30
2023-10-27T23:38:54.436Z,1.67
2023-10-27T23:41:16.421Z,1.70
2023-10-27T23:43:38.976Z,2.58
2023-10-27T23:46:01.916Z,1.60
2023-10-27T23:48:26.750Z,1.90
2023-10-27T23:50:49.241Z,1.60
2023-10-27T23:53:11.952Z,1.50
2023-10-27T23:55:33.922Z,1.40
2023-10-27T23:57:56.700Z,1.80
